»·PEaware :: N412KB KJAC-KCPR

N412KB :: KJAC-KCPR

FLIGHT INFORMATION

Flight Status: Arrived
Operator: Privately registered:
United States
More flights under this callsign
Pilot: Kevin C. (35193)
Aircraft: SOCATA TBM-900
(TBM9)
More flights by this aircraft type
Origin: KJAC Jackson Hole
United States
Destination: KCPR Natrona Co Intl
United States
More flights between these airports :: More routes between these airports
Route: DIVYD1 BOY
File this flight plan on PilotEdge
Remarks:
Altitude:
(Current/Filed)
21,000ft
Speed:
(Current/Filed)
290kts
Departed: 24-Jan-23 06:46 PM
Arrived: 24-Jan-23 07:37 PM
Distance/Time
Traveled:
192nm/0:51
Distance/Time
To Go:
Arrived

Flight Plot

Page will automatically refresh every two minutes.

Flight plan parsing failed; only flown route is shown


Map Options




Map Legend


Flown Route
Filed Route
Departure Airport
Arrival Airport
Navaid (VOR, NDB)
Fix

Horizontal Profiles

Position Reports

Time Latitude Longitude Heading Altitude Ground
Speed
24-Jan-23 18:32 43.601631 -110.737958 188 6419ft 0kts
24-Jan-23 18:33 43.601631 -110.737958 188 6419ft 0kts
24-Jan-23 18:34 43.601631 -110.737958 188 6419ft 0kts
24-Jan-23 18:35 43.601631 -110.737958 188 6419ft 0kts
24-Jan-23 18:36 43.601631 -110.737958 188 6419ft 0kts
24-Jan-23 18:37 43.601631 -110.737958 188 6419ft 0kts
24-Jan-23 18:38 43.601631 -110.737958 188 6419ft 0kts
24-Jan-23 18:39 43.600502 -110.739469 199 6417ft 14kts
24-Jan-23 18:40 43.599510 -110.740146 253 6416ft 0kts
24-Jan-23 18:41 43.599510 -110.740146 253 6416ft 0kts
24-Jan-23 18:42 43.599510 -110.740146 253 6416ft 0kts
24-Jan-23 18:43 43.599510 -110.740146 253 6416ft 0kts
24-Jan-23 18:44 43.600047 -110.741308 17 6419ft 0kts
24-Jan-23 18:45 43.621155 -110.734603 10 6999ft 139kts
24-Jan-23 18:46 43.657842 -110.713628 13 9817ft 137kts
24-Jan-23 18:47 43.684294 -110.674664 52 12395ft 145kts
24-Jan-23 18:48 43.704954 -110.626442 47 14752ft 160kts
24-Jan-23 18:49 43.729805 -110.567862 48 16942ft 182kts
24-Jan-23 18:50 43.756070 -110.506020 47 19308ft 190kts
24-Jan-23 18:51 43.767462 -110.429539 90 21220ft 249kts
24-Jan-23 18:52 43.752662 -110.322656 92 21457ft 305kts
24-Jan-23 18:53 43.737011 -110.205370 93 21445ft 314kts
24-Jan-23 18:54 43.720898 -110.086254 93 21378ft 314kts
24-Jan-23 18:55 43.704726 -109.967798 94 21306ft 313kts
24-Jan-23 18:56 43.688510 -109.849856 94 21211ft 311kts
24-Jan-23 18:57 43.672241 -109.732539 94 21185ft 311kts
24-Jan-23 18:58 43.655882 -109.615413 95 21174ft 309kts
24-Jan-23 18:59 43.639554 -109.499403 95 21238ft 308kts
24-Jan-23 19:00 43.623116 -109.383690 95 21249ft 305kts
24-Jan-23 19:01 43.606717 -109.269130 96 21333ft 305kts
24-Jan-23 19:02 43.590221 -109.154527 96 21331ft 303kts
24-Jan-23 19:03 43.573713 -109.040833 96 21333ft 302kts
24-Jan-23 19:04 43.557166 -108.927606 96 21329ft 300kts
24-Jan-23 19:05 43.540515 -108.814582 97 21350ft 301kts
24-Jan-23 19:06 43.523704 -108.701277 97 21315ft 301kts
24-Jan-23 19:07 43.506804 -108.588198 97 21294ft 301kts
24-Jan-23 19:08 43.489866 -108.475543 97 21281ft 301kts
24-Jan-23 19:09 43.472843 -108.363256 97 21312ft 293kts
24-Jan-23 19:10 43.450502 -108.256001 110 21305ft 294kts
24-Jan-23 19:11 43.419767 -108.152010 108 21365ft 293kts
24-Jan-23 19:12 43.389041 -108.047859 108 21367ft 294kts
24-Jan-23 19:13 43.358316 -107.944172 109 21353ft 293kts
24-Jan-23 19:14 43.327422 -107.840341 109 21349ft 294kts
24-Jan-23 19:15 43.296868 -107.738024 109 21353ft 282kts
24-Jan-23 19:16 43.268556 -107.643643 109 19684ft 257kts
24-Jan-23 19:17 43.242056 -107.555593 109 17770ft 244kts
24-Jan-23 19:18 43.216449 -107.470828 108 15786ft 238kts
24-Jan-23 19:19 43.191514 -107.388527 108 14341ft 222kts
24-Jan-23 19:20 43.169126 -107.314787 107 14199ft 203kts
24-Jan-23 19:21 43.143898 -107.232032 108 13132ft 242kts
24-Jan-23 19:22 43.118175 -107.147859 108 11558ft 237kts
24-Jan-23 19:23 43.093619 -107.067634 108 10320ft 231kts
24-Jan-23 19:24 43.067876 -106.984138 108 10178ft 238kts
24-Jan-23 19:25 43.049073 -106.900865 90 9819ft 226kts
24-Jan-23 19:26 43.045307 -106.817198 88 9140ft 210kts
24-Jan-23 19:27 43.043093 -106.735458 88 8270ft 218kts
24-Jan-23 19:28 43.041783 -106.655629 88 8053ft 209kts
24-Jan-23 19:29 43.040088 -106.574650 93 8042ft 216kts
24-Jan-23 19:30 43.020837 -106.503809 110 7927ft 192kts
24-Jan-23 19:31 43.000617 -106.435769 110 7415ft 193kts
24-Jan-23 19:32 42.977492 -106.379647 170 6882ft 143kts
24-Jan-23 19:33 42.948193 -106.402984 231 6367ft 121kts
24-Jan-23 19:34 42.927660 -106.430319 226 5746ft 100kts
24-Jan-23 19:35 42.910973 -106.452144 223 5338ft 57kts
24-Jan-23 19:36 42.905711 -106.457148 133 5336ft 0kts
24-Jan-23 19:37 42.904516 -106.457786 223 5335ft 14kts
24-Jan-23 19:38 42.900682 -106.462813 223 5331ft 20kts
24-Jan-23 19:39 42.898843 -106.463677 124 5329ft 1kts
24-Jan-23 19:40 42.898789 -106.463583 129 5329ft 0kts
24-Jan-23 19:41 42.898789 -106.463583 129 5329ft 0kts
24-Jan-23 19:42 42.898789 -106.463583 129 5329ft 0kts
24-Jan-23 19:43 42.898789 -106.463583 129 5329ft 0kts

Navigation Log

Ident Type
Flight plan parsing failed, navigation log unavailable